Time;durP1;ratioP1;P1;durP2;ratioP2;P2;SDS_P1;SDS_P2;PMS_P1;PMS_P2;Temp;Humidity;BMP_temperature;BMP_pressure;BME280_temperature;BME280_humidity;BME280_pressure;Samples;Min_cycle;Max_cycle;Signal;HPM_P1;HPM_P2
2022/03/30 00:01:08;;;;;;;3.03;2.58;;;15.00;48.40;;;;;;2251472;63;20247;-89
2022/03/30 00:03:34;;;;;;;4.20;2.80;;;15.00;48.40;;;;;;2257693;63;20233;-89
2022/03/30 00:06:00;;;;;;;3.10;2.50;;;15.00;48.50;;;;;;2257089;63;20212;-89
2022/03/30 00:08:25;;;;;;;3.47;2.95;;;15.00;48.40;;;;;;2254985;63;20365;-89
2022/03/30 00:10:51;;;;;;;3.38;2.67;;;15.00;48.50;;;;;;2258664;63;20217;-89
2022/03/30 00:13:17;;;;;;;3.50;2.72;;;15.00;48.50;;;;;;2257498;63;20391;-89
2022/03/30 00:15:44;;;;;;;2.80;2.60;;;15.00;48.50;;;;;;2253659;63;20311;-89
2022/03/30 00:18:10;;;;;;;3.30;2.80;;;15.00;48.50;;;;;;2251634;63;20298;-90
2022/03/30 00:20:36;;;;;;;4.57;2.53;;;14.90;48.50;;;;;;2252045;63;20236;-89
2022/03/30 00:23:02;;;;;;;2.70;2.50;;;14.90;49.20;;;;;;2255571;63;20299;-89
2022/03/30 00:25:31;;;;;;;3.10;2.73;;;14.90;48.50;;;;;;2253871;63;20886;-88
2022/03/30 00:27:56;;;;;;;3.30;2.63;;;14.90;48.50;;;;;;2254159;63;20333;-89
2022/03/30 00:30:22;;;;;;;2.70;2.50;;;14.90;49.20;;;;;;2254889;63;20233;-89
2022/03/30 00:32:49;;;;;;;3.28;2.58;;;14.90;48.50;;;;;;2253787;63;20689;-89
2022/03/30 00:35:15;;;;;;;2.92;2.60;;;14.80;48.60;;;;;;2253702;63;20240;-89
2022/03/30 00:37:42;;;;;;;2.75;2.55;;;14.80;48.50;;;;;;2253686;63;20212;-88
2022/03/30 00:40:16;;;;;;;3.17;2.72;;;14.80;48.50;;;;;;2253653;63;20227;-89
2022/03/30 00:42:43;;;;;;;3.70;2.50;;;14.80;48.60;;;;;;2255350;63;20291;-89
2022/03/30 00:45:29;;;;;;;2.90;2.60;;;14.80;48.60;;;;;;2254143;63;20241;-89
2022/03/30 00:47:55;;;;;;;3.25;2.45;;;14.80;48.60;;;;;;2206072;64;20257;-89
2022/03/30 00:50:22;;;;;;;2.92;2.65;;;14.70;49.30;;;;;;2209542;64;20317;-87
2022/03/30 00:52:50;;;;;;;3.47;2.67;;;14.70;48.60;;;;;;2208101;64;20241;-87
2022/03/30 00:55:17;;;;;;;3.00;2.35;;;14.80;48.60;;;;;;2207197;64;20385;-87
2022/03/30 00:57:45;;;;;;;3.67;2.70;;;14.70;48.70;;;;;;2209431;64;20220;-86
2022/03/30 01:00:14;;;;;;;4.18;2.83;;;14.70;48.70;;;;;;2208571;64;20873;-86
2022/03/30 01:02:43;;;;;;;3.45;2.83;;;14.70;48.70;;;;;;2206050;64;20275;-87
2022/03/30 01:05:10;;;;;;;2.53;2.30;;;14.70;48.70;;;;;;2207735;64;20406;-87
2022/03/30 01:07:36;;;;;;;2.90;2.50;;;14.70;48.70;;;;;;2209018;64;20968;-87
2022/03/30 01:10:05;;;;;;;3.05;2.10;;;14.60;48.70;;;;;;2209962;64;20711;-87
2022/03/30 01:12:34;;;;;;;3.00;2.60;;;14.60;48.70;;;;;;2210147;64;20262;-87
2022/03/30 01:15:00;;;;;;;3.58;2.95;;;14.60;48.80;;;;;;2207399;64;20376;-87
2022/03/30 01:17:26;;;;;;;3.70;3.03;;;14.60;49.50;;;;;;2208397;64;20241;-87
2022/03/30 01:19:52;;;;;;;3.38;2.60;;;14.60;48.80;;;;;;2207218;64;20232;-88
2022/03/30 01:22:18;;;;;;;2.80;2.50;;;14.50;48.70;;;;;;2205668;64;20335;-87
2022/03/30 01:24:44;;;;;;;3.75;2.90;;;14.50;48.80;;;;;;2223766;63;20307;-88
2022/03/30 01:27:13;;;;;;;2.55;2.35;;;14.50;48.80;;;;;;2252610;63;20308;-88
2022/03/30 01:32:26;;;;;;;2.92;2.47;;;14.50;48.80;;;;;;2255052;63;20253;-88
2022/03/30 01:34:57;;;;;;;4.13;2.58;;;14.50;48.80;;;;;;2258351;63;20247;-87
2022/03/30 01:37:28;;;;;;;3.20;2.38;;;14.50;48.80;;;;;;2253066;63;20395;-88
2022/03/30 01:39:55;;;;;;;3.30;2.53;;;14.40;48.80;;;;;;2255347;63;20373;-88
2022/03/30 01:42:21;;;;;;;2.75;2.25;;;14.40;48.80;;;;;;2253303;63;20234;-88
2022/03/30 01:44:48;;;;;;;2.75;2.20;;;14.40;48.80;;;;;;2256398;63;20256;-87
2022/03/30 01:47:15;;;;;;;3.03;2.50;;;14.40;48.80;;;;;;2255058;63;20233;-87
2022/03/30 01:49:41;;;;;;;2.90;2.60;;;14.40;48.90;;;;;;2258351;63;20798;-88
2022/03/30 01:52:08;;;;;;;3.22;2.78;;;14.40;48.90;;;;;;2257775;63;20276;-89
2022/03/30 01:54:36;;;;;;;3.45;2.67;;;14.40;48.90;;;;;;2257259;63;20231;-89
2022/03/30 01:57:02;;;;;;;3.05;2.50;;;14.30;48.90;;;;;;2254076;63;20296;-88
2022/03/30 01:59:28;;;;;;;3.22;2.80;;;14.30;48.90;;;;;;2258778;63;20231;-88
2022/03/30 02:01:54;;;;;;;3.00;2.70;;;14.30;48.90;;;;;;2247914;63;20711;-88
2022/03/30 02:04:20;;;;;;;3.15;2.58;;;14.30;48.90;;;;;;2255651;63;20224;-89
2022/03/30 02:06:46;;;;;;;2.95;2.65;;;14.30;48.90;;;;;;2253491;63;20219;-88
2022/03/30 02:09:12;;;;;;;3.40;2.58;;;14.30;49.00;;;;;;2248576;63;20244;-89
2022/03/30 02:11:38;;;;;;;2.58;2.38;;;14.30;49.00;;;;;;2254824;63;20333;-88
2022/03/30 02:14:05;;;;;;;2.85;2.63;;;14.20;48.90;;;;;;2253419;63;20224;-88
2022/03/30 02:16:31;;;;;;;3.85;2.70;;;14.20;48.90;;;;;;2246764;63;20262;-87
2022/03/30 02:18:56;;;;;;;2.92;2.38;;;14.20;48.90;;;;;;2255514;63;20219;-88
2022/03/30 02:21:24;;;;;;;3.22;2.75;;;14.20;49.00;;;;;;2256975;63;20298;-88
2022/03/30 02:23:51;;;;;;;2.72;2.50;;;14.20;49.00;;;;;;2255883;63;20641;-88
2022/03/30 02:26:18;;;;;;;2.83;2.30;;;14.20;49.00;;;;;;2257719;63;20388;-89
2022/03/30 02:28:56;;;;;;;2.97;2.50;;;14.20;49.00;;;;;;2257032;63;20256;-89
2022/03/30 02:31:23;;;;;;;3.08;2.53;;;14.10;49.00;;;;;;2256137;63;20216;-90
2022/03/30 02:33:50;;;;;;;2.70;2.50;;;14.10;49.00;;;;;;2257529;63;22124;-89
2022/03/30 02:36:16;;;;;;;3.17;2.60;;;14.10;49.10;;;;;;2255972;63;20642;-89
2022/03/30 02:38:43;;;;;;;3.63;2.60;;;14.10;49.10;;;;;;2257140;63;20227;-88
2022/03/30 02:41:10;;;;;;;2.58;2.30;;;14.10;49.10;;;;;;2257696;63;20387;-89
2022/03/30 02:43:36;;;;;;;2.90;2.47;;;14.10;49.10;;;;;;2256941;63;20224;-89
2022/03/30 02:46:02;;;;;;;3.63;2.47;;;14.10;49.10;;;;;;2259746;63;20349;-89
2022/03/30 02:48:28;;;;;;;2.60;2.40;;;14.10;49.10;;;;;;2258073;63;20300;-89
2022/03/30 02:50:56;;;;;;;2.75;2.55;;;14.00;49.00;;;;;;2260620;63;20967;-89
2022/03/30 02:53:23;;;;;;;2.50;2.30;;;14.00;49.00;;;;;;2258215;63;20219;-89
2022/03/30 02:55:49;;;;;;;2.80;2.50;;;14.00;49.00;;;;;;2262029;63;20200;-89
2022/03/30 02:58:15;;;;;;;3.22;2.47;;;14.10;49.70;;;;;;2251099;63;20297;-89
2022/03/30 03:00:42;;;;;;;4.18;2.55;;;14.10;49.00;;;;;;2257537;63;20399;-89
2022/03/30 03:03:09;;;;;;;4.15;3.00;;;14.10;49.00;;;;;;2249936;63;20319;-89
2022/03/30 03:05:37;;;;;;;2.90;2.50;;;14.00;49.00;;;;;;2257554;63;20298;-89
2022/03/30 03:08:05;;;;;;;2.97;2.60;;;14.00;49.60;;;;;;2255427;63;20262;-89
2022/03/30 03:10:34;;;;;;;2.60;2.40;;;14.00;48.90;;;;;;2260410;63;20323;-88
2022/03/30 03:13:03;;;;;;;2.97;2.63;;;14.00;48.90;;;;;;2252292;63;20290;-89
2022/03/30 03:15:30;;;;;;;3.67;2.38;;;14.00;48.90;;;;;;2259676;63;20208;-88
2022/03/30 03:17:57;;;;;;;3.40;2.55;;;14.00;48.90;;;;;;2256117;63;20885;-89
2022/03/30 03:20:24;;;;;;;2.40;2.20;;;14.00;48.90;;;;;;2258644;63;20239;-88
2022/03/30 03:22:50;;;;;;;2.60;2.40;;;14.00;48.90;;;;;;2260543;63;20798;-88
2022/03/30 03:25:16;;;;;;;2.70;2.50;;;14.00;49.00;;;;;;2250572;63;20266;-88
2022/03/30 03:27:43;;;;;;;2.63;2.20;;;14.00;49.00;;;;;;2259761;63;20230;-88
2022/03/30 03:30:13;;;;;;;3.83;2.53;;;14.00;49.00;;;;;;2258779;63;20852;-88
2022/03/30 03:32:39;;;;;;;2.38;2.13;;;14.00;49.00;;;;;;2255569;63;20255;-88
2022/03/30 03:35:07;;;;;;;2.72;2.17;;;14.10;49.00;;;;;;2256658;63;20243;-89
2022/03/30 03:37:33;;;;;;;3.90;2.70;;;14.10;49.00;;;;;;2257958;63;20224;-88
2022/03/30 03:39:59;;;;;;;2.90;2.17;;;14.20;49.10;;;;;;2257375;63;20349;-89
2022/03/30 03:42:25;;;;;;;3.33;2.30;;;14.20;49.10;;;;;;2259044;63;20203;-88
2022/03/30 03:44:51;;;;;;;2.53;2.28;;;14.30;49.10;;;;;;2258564;63;20219;-89
2022/03/30 03:47:17;;;;;;;3.35;2.50;;;14.40;49.10;;;;;;2258291;63;20713;-88
2022/03/30 03:49:42;;;;;;;4.15;2.60;;;14.50;49.00;;;;;;2260117;63;20223;-88
2022/03/30 03:52:08;;;;;;;4.47;2.55;;;14.50;48.90;;;;;;2254180;63;20264;-90
2022/03/30 03:54:34;;;;;;;2.42;2.13;;;14.60;48.80;;;;;;2255892;63;20237;-89
2022/03/30 03:57:00;;;;;;;3.47;2.55;;;14.70;48.70;;;;;;2258514;63;20195;-88
2022/03/30 03:59:26;;;;;;;3.38;2.42;;;14.70;48.60;;;;;;2258272;63;20366;-88
2022/03/30 04:01:52;;;;;;;4.65;2.80;;;14.80;48.50;;;;;;2256725;63;20225;-89
2022/03/30 04:04:18;;;;;;;2.97;2.63;;;14.80;48.30;;;;;;2255918;63;20397;-89
2022/03/30 04:06:44;;;;;;;2.53;2.15;;;14.90;48.30;;;;;;2257971;63;20356;-89
2022/03/30 04:09:10;;;;;;;3.00;2.65;;;14.90;48.10;;;;;;2254796;63;20448;-88
2022/03/30 04:11:36;;;;;;;2.75;2.28;;;14.90;48.00;;;;;;2256608;63;20203;-87
2022/03/30 04:14:02;;;;;;;2.88;2.50;;;14.90;47.90;;;;;;2257302;63;20311;-88
2022/03/30 04:16:28;;;;;;;2.70;2.45;;;15.00;47.90;;;;;;2255303;63;20767;-88
2022/03/30 04:18:55;;;;;;;3.10;2.55;;;15.00;47.90;;;;;;2256250;63;20997;-88
2022/03/30 04:21:22;;;;;;;2.83;2.45;;;15.00;47.80;;;;;;2259328;63;20383;-87
2022/03/30 04:23:48;;;;;;;2.67;2.47;;;15.10;47.80;;;;;;2252333;63;20228;-88
2022/03/30 04:26:14;;;;;;;3.53;2.85;;;15.10;47.80;;;;;;2253878;63;20431;-88
2022/03/30 04:28:43;;;;;;;2.50;2.30;;;15.10;47.60;;;;;;2250490;63;20231;-87
2022/03/30 04:31:12;;;;;;;2.75;2.47;;;15.20;47.60;;;;;;2248839;63;20240;-88
2022/03/30 04:33:39;;;;;;;3.60;2.53;;;15.20;47.60;;;;;;2246499;63;20212;-87
2022/03/30 04:36:05;;;;;;;2.30;2.10;;;15.20;47.50;;;;;;2252474;63;20372;-88
2022/03/30 04:38:32;;;;;;;3.38;2.58;;;15.20;47.50;;;;;;2251340;63;20244;-87
2022/03/30 04:40:59;;;;;;;4.25;2.70;;;15.20;47.50;;;;;;2252266;63;20449;-88
2022/03/30 04:43:25;;;;;;;2.50;2.17;;;15.20;47.40;;;;;;2253935;63;20366;-89
2022/03/30 04:45:51;;;;;;;4.13;2.90;;;15.30;47.40;;;;;;2254005;63;20255;-88
2022/03/30 04:48:17;;;;;;;3.17;2.53;;;15.30;47.40;;;;;;2257268;63;20372;-87
2022/03/30 04:50:43;;;;;;;2.85;2.30;;;15.30;47.30;;;;;;2256421;63;20199;-89
2022/03/30 04:53:09;;;;;;;3.63;2.40;;;15.30;47.20;;;;;;2246161;63;20356;-88
2022/03/30 04:55:36;;;;;;;2.50;2.30;;;15.40;47.20;;;;;;2252827;63;20310;-87
2022/03/30 04:58:03;;;;;;;2.88;2.58;;;15.30;47.20;;;;;;2247108;63;20219;-88
2022/03/30 05:00:29;;;;;;;2.83;2.35;;;15.40;47.30;;;;;;2257608;63;20256;-88
2022/03/30 05:02:54;;;;;;;3.42;2.40;;;15.40;47.30;;;;;;2248923;63;20361;-87
2022/03/30 05:05:20;;;;;;;3.22;2.58;;;15.40;47.30;;;;;;2256063;63;20218;-88
2022/03/30 05:07:46;;;;;;;2.95;2.65;;;15.40;47.20;;;;;;2256339;63;20248;-88
2022/03/30 05:10:13;;;;;;;3.55;2.58;;;15.40;47.20;;;;;;2248811;63;20328;-89
2022/03/30 05:12:40;;;;;;;3.08;2.63;;;15.40;47.10;;;;;;2258031;63;20211;-88
2022/03/30 05:15:07;;;;;;;3.70;2.63;;;15.40;47.00;;;;;;2257723;63;20227;-88
2022/03/30 05:17:33;;;;;;;3.08;2.50;;;15.50;47.00;;;;;;2255640;63;20247;-89
2022/03/30 05:19:59;;;;;;;2.72;2.50;;;15.50;47.00;;;;;;2243092;63;20228;-88
2022/03/30 05:22:25;;;;;;;3.85;2.70;;;15.50;47.00;;;;;;2255854;63;20209;-89
2022/03/30 05:24:51;;;;;;;3.70;2.65;;;15.50;46.90;;;;;;2254457;63;20204;-89
2022/03/30 05:27:17;;;;;;;3.55;2.67;;;15.50;46.90;;;;;;2258075;63;20404;-87
2022/03/30 05:29:43;;;;;;;2.42;2.22;;;15.50;46.80;;;;;;2259177;63;20392;-87
2022/03/30 05:32:17;;;;;;;2.80;2.53;;;15.40;46.80;;;;;;2253931;63;20399;-87
2022/03/30 05:34:43;;;;;;;3.70;2.33;;;15.50;46.90;;;;;;2259158;63;20249;-89
2022/03/30 05:37:11;;;;;;;3.22;2.50;;;15.50;47.00;;;;;;2252637;63;20236;-92
2022/03/30 05:39:41;;;;;;;;;;;15.50;47.00;;;;;;2260113;63;20395;-89
2022/03/30 05:42:12;;;;;;;3.70;2.17;;;15.50;47.00;;;;;;2259580;63;20095;-90
2022/03/30 05:44:41;;;;;;;2.88;2.30;;;15.50;46.90;;;;;;2256121;63;20770;-88
2022/03/30 05:47:09;;;;;;;2.97;2.47;;;15.50;46.90;;;;;;2259132;63;20256;-89
2022/03/30 05:49:38;;;;;;;2.78;2.55;;;15.50;46.80;;;;;;2256127;63;20331;-88
2022/03/30 05:52:07;;;;;;;3.50;2.47;;;15.50;46.80;;;;;;2254525;63;20224;-90
2022/03/30 05:54:33;;;;;;;3.60;2.70;;;15.50;46.90;;;;;;2254002;63;20220;-88
2022/03/30 05:57:02;;;;;;;3.03;2.30;;;15.50;46.90;;;;;;2251999;63;20285;-89
2022/03/30 05:59:48;;;;;;;4.23;2.90;;;15.50;46.90;;;;;;2259542;63;21106;-89
2022/03/30 06:02:16;;;;;;;3.63;2.38;;;15.40;46.80;;;;;;2254170;63;20387;-91
2022/03/30 06:04:43;;;;;;;3.05;2.28;;;15.40;46.80;;;;;;2251178;63;20336;-91
2022/03/30 06:07:09;;;;;;;3.15;2.50;;;15.40;46.80;;;;;;2251945;63;20236;-90
2022/03/30 06:09:35;;;;;;;3.75;2.58;;;15.40;46.80;;;;;;2251335;63;20308;-91
2022/03/30 06:12:02;;;;;;;4.68;2.50;;;15.40;46.90;;;;;;2252022;63;20212;-91
2022/03/30 06:14:27;;;;;;;3.13;2.30;;;15.40;46.90;;;;;;2251609;63;20828;-90
2022/03/30 06:16:53;;;;;;;2.90;2.30;;;15.40;46.90;;;;;;2251699;63;20298;-90
2022/03/30 06:19:19;;;;;;;3.17;2.60;;;15.40;46.90;;;;;;2252020;63;20248;-90
2022/03/30 06:21:46;;;;;;;2.75;2.33;;;15.40;47.00;;;;;;2251428;63;20306;-91
2022/03/30 06:24:12;;;;;;;3.25;2.53;;;15.30;47.00;;;;;;2251951;63;20883;-90
2022/03/30 06:26:39;;;;;;;2.72;2.40;;;15.30;47.10;;;;;;2251666;63;20326;-90
2022/03/30 06:29:05;;;;;;;3.22;2.38;;;15.30;47.10;;;;;;2253551;63;20236;-91
2022/03/30 06:31:31;;;;;;;2.75;2.42;;;15.20;47.10;;;;;;2245213;63;20228;-91
2022/03/30 06:34:02;;;;;;;;;;;15.20;47.10;;;;;;2252413;63;20357;-91
2022/03/30 06:36:29;;;;;;;3.78;2.78;;;15.20;47.10;;;;;;2253551;63;20125;-91
2022/03/30 06:38:55;;;;;;;2.60;2.35;;;15.20;47.20;;;;;;2259719;63;20686;-91
2022/03/30 06:41:22;;;;;;;3.75;3.05;;;15.20;47.30;;;;;;2260350;63;20370;-92
2022/03/30 06:43:47;;;;;;;3.08;2.20;;;15.20;47.30;;;;;;2259704;63;20250;-92
2022/03/30 06:46:14;;;;;;;2.72;2.40;;;15.20;47.20;;;;;;2260369;63;20313;-92
2022/03/30 06:48:41;;;;;;;2.60;2.22;;;15.30;47.30;;;;;;2259574;63;20244;-92
2022/03/30 06:51:07;;;;;;;2.38;2.17;;;15.30;47.20;;;;;;2252991;63;20803;-92
2022/03/30 06:53:34;;;;;;;2.47;1.90;;;15.30;47.10;;;;;;2259837;63;20234;-91
2022/03/30 06:56:00;;;;;;;2.97;2.20;;;15.30;47.10;;;;;;2259785;63;20223;-91
2022/03/30 06:58:26;;;;;;;2.90;2.20;;;15.30;47.00;;;;;;2252748;63;20345;-90
2022/03/30 07:00:53;;;;;;;2.80;2.10;;;15.30;47.00;;;;;;2259401;63;20247;-91
2022/03/30 07:03:22;;;;;;;2.78;2.10;;;15.30;47.00;;;;;;2260272;63;20758;-91
2022/03/30 07:05:47;;;;;;;3.00;2.17;;;15.30;47.00;;;;;;2259270;63;20237;-92
2022/03/30 07:10:57;;;;;;;1.88;1.65;;;15.20;47.00;;;;;;2257387;63;20340;-91
2022/03/30 07:13:23;;;;;;;1.60;1.50;;;15.20;47.00;;;;;;2255653;63;20816;-90
2022/03/30 07:15:49;;;;;;;2.45;1.95;;;15.20;47.10;;;;;;2255285;63;20365;-92
2022/03/30 07:18:15;;;;;;;2.97;1.67;;;15.20;47.00;;;;;;2255466;63;20220;-91
2022/03/30 07:20:41;;;;;;;1.85;1.67;;;15.30;47.00;;;;;;2250769;63;20757;-91
2022/03/30 07:23:10;;;;;;;1.60;1.50;;;15.30;46.90;;;;;;2250799;63;20757;-91
2022/03/30 07:25:37;;;;;;;2.08;1.48;;;15.30;46.80;;;;;;2255585;63;20216;-91
2022/03/30 07:28:04;;;;;;;2.33;1.20;;;15.30;46.70;;;;;;2255601;63;20251;-92
2022/03/30 07:30:32;;;;;;;1.83;1.40;;;15.30;46.60;;;;;;2258604;63;20321;-92
2022/03/30 07:32:59;;;;;;;1.77;1.20;;;15.30;46.60;;;;;;2255366;63;20299;-91
2022/03/30 07:35:29;;;;;;;1.30;1.20;;;15.30;46.60;;;;;;2253282;63;20240;-91
2022/03/30 07:37:56;;;;;;;2.08;1.10;;;15.40;46.60;;;;;;2245660;63;21254;-90
2022/03/30 07:40:24;;;;;;;1.23;1.02;;;15.50;46.40;;;;;;2244470;63;20220;-90
2022/03/30 07:42:51;;;;;;;1.27;1.00;;;15.50;46.30;;;;;;2252466;63;20526;-89
2022/03/30 07:45:19;;;;;;;1.10;0.90;;;15.60;46.20;;;;;;2251952;63;20661;-90
2022/03/30 07:47:44;;;;;;;1.80;1.00;;;15.60;46.00;;;;;;2252066;63;20220;-90
2022/03/30 07:50:12;;;;;;;2.25;1.00;;;15.60;45.90;;;;;;2252329;63;20196;-90
2022/03/30 07:52:39;;;;;;;0.70;0.70;;;15.60;45.90;;;;;;2238049;63;20232;-90
2022/03/30 07:55:06;;;;;;;1.00;0.90;;;15.50;45.90;;;;;;2252105;63;20200;-90
2022/03/30 07:57:32;;;;;;;0.77;0.77;;;15.50;45.90;;;;;;2251697;63;20232;-91
2022/03/30 08:00:01;;;;;;;1.15;0.60;;;15.50;45.90;;;;;;2253058;63;20443;-90
2022/03/30 08:02:27;;;;;;;0.88;0.80;;;15.50;45.90;;;;;;2252150;63;20216;-90
2022/03/30 08:04:54;;;;;;;0.70;0.70;;;15.50;45.90;;;;;;2252153;63;20224;-88
2022/03/30 08:07:21;;;;;;;0.65;0.65;;;15.50;46.00;;;;;;2252100;63;20220;-88
2022/03/30 08:09:47;;;;;;;0.45;0.40;;;15.40;45.90;;;;;;2251348;63;20309;-89
2022/03/30 08:12:14;;;;;;;0.60;0.60;;;15.40;46.00;;;;;;2252314;63;20287;-89
2022/03/30 08:14:42;;;;;;;0.85;0.52;;;15.40;46.00;;;;;;2252382;63;20249;-88
2022/03/30 08:17:09;;;;;;;0.88;0.47;;;15.40;46.00;;;;;;2252117;63;20364;-89
2022/03/30 08:19:35;;;;;;;0.60;0.50;;;15.40;46.00;;;;;;2251534;63;20254;-90
2022/03/30 08:24:46;;;;;;;0.40;0.40;;;15.30;46.10;;;;;;2251882;63;20339;-90
2022/03/30 08:27:16;;;;;;;0.60;0.50;;;15.30;46.10;;;;;;2251769;63;20232;-89
2022/03/30 08:29:44;;;;;;;0.50;0.50;;;15.30;46.10;;;;;;2251959;63;20250;-89
2022/03/30 08:32:12;;;;;;;0.75;0.50;;;15.30;46.50;;;;;;2251496;63;20227;-90
2022/03/30 08:34:39;;;;;;;0.52;0.43;;;15.30;46.20;;;;;;2252192;63;20710;-90
2022/03/30 08:37:05;;;;;;;0.50;0.50;;;15.30;46.90;;;;;;2252145;63;20361;-90
2022/03/30 08:39:33;;;;;;;0.40;0.40;;;15.30;46.10;;;;;;2253527;63;20238;-89
2022/03/30 08:41:59;;;;;;;0.47;0.40;;;15.30;46.10;;;;;;2251635;63;20308;-89
2022/03/30 08:44:25;;;;;;;0.47;0.40;;;15.20;46.10;;;;;;2251111;63;20268;-87
2022/03/30 08:46:51;;;;;;;0.40;0.40;;;15.20;46.10;;;;;;2251933;63;20216;-90
2022/03/30 08:49:17;;;;;;;0.75;0.40;;;15.30;46.10;;;;;;2255605;63;20665;-90
2022/03/30 08:51:47;;;;;;;0.32;0.32;;;15.30;45.90;;;;;;2253620;63;20199;-91
2022/03/30 08:54:16;;;;;;;0.57;0.40;;;15.30;46.00;;;;;;2255799;63;20357;-89
2022/03/30 08:56:42;;;;;;;0.53;0.40;;;15.20;45.90;;;;;;2256902;63;20246;-89
2022/03/30 08:59:15;;;;;;;0.60;0.35;;;15.20;45.90;;;;;;2257035;63;20256;-90
2022/03/30 09:01:41;;;;;;;1.55;0.57;;;15.20;45.90;;;;;;2255638;63;20294;-90
2022/03/30 09:04:12;;;;;;;0.63;0.30;;;15.20;45.90;;;;;;2259900;63;20251;-90
2022/03/30 09:06:50;;;;;;;0.68;0.40;;;15.20;45.90;;;;;;2259424;63;20236;-90
2022/03/30 09:09:36;;;;;;;0.68;0.35;;;15.20;46.00;;;;;;2259828;63;20765;-90
2022/03/30 09:12:08;;;;;;;0.95;0.40;;;15.20;46.00;;;;;;2259505;63;20227;-89
2022/03/30 09:14:37;;;;;;;0.45;0.40;;;15.20;45.90;;;;;;2259367;63;20721;-91
2022/03/30 09:17:06;;;;;;;2.00;0.30;;;15.30;46.10;;;;;;2259777;63;20215;-89
2022/03/30 09:19:40;;;;;;;3.83;0.52;;;15.30;45.70;;;;;;2259016;63;20235;-89
2022/03/30 09:22:08;;;;;;;0.80;0.40;;;15.30;45.60;;;;;;2259709;63;20223;-88
2022/03/30 09:24:37;;;;;;;2.22;0.40;;;15.30;45.50;;;;;;2258814;63;20388;-89
2022/03/30 09:27:05;;;;;;;2.55;0.50;;;15.40;45.50;;;;;;2259639;63;20223;-89
2022/03/30 09:29:39;;;;;;;2.47;0.50;;;15.30;45.50;;;;;;2259419;63;20249;-89
2022/03/30 09:32:09;;;;;;;;;;;15.20;45.50;;;;;;2259668;63;20289;-89
2022/03/30 09:34:45;;;;;;;;;;;15.30;45.60;;;;;;2260287;63;20088;-89
2022/03/30 09:37:11;;;;;;;0.82;0.50;;;15.20;45.60;;;;;;2258780;63;20112;-88
2022/03/30 09:39:38;;;;;;;1.02;0.40;;;15.20;45.60;;;;;;2259272;63;20211;-89
2022/03/30 09:42:08;;;;;;;1.15;0.50;;;15.30;45.60;;;;;;2259330;63;20305;-89
2022/03/30 09:44:54;;;;;;;0.55;0.40;;;15.20;45.50;;;;;;2258854;63;20227;-89
2022/03/30 09:47:22;;;;;;;0.85;0.50;;;15.20;45.50;;;;;;2259566;63;20223;-89
2022/03/30 09:49:57;;;;;;;2.05;0.40;;;15.20;45.50;;;;;;2258799;63;20325;-89
2022/03/30 09:52:29;;;;;;;1.92;0.50;;;15.20;45.50;;;;;;2259910;63;20364;-91
2022/03/30 09:54:58;;;;;;;0.93;0.43;;;15.30;45.50;;;;;;2259840;63;20227;-89
2022/03/30 09:57:41;;;;;;;0.50;0.32;;;15.30;45.40;;;;;;2255116;63;20236;-89
2022/03/30 10:00:15;;;;;;;0.75;0.38;;;15.30;45.40;;;;;;2252349;63;20427;-88
2022/03/30 10:02:46;;;;;;;0.43;0.40;;;15.30;45.40;;;;;;2245375;63;20843;-89
2022/03/30 10:05:15;;;;;;;0.40;0.40;;;15.30;45.40;;;;;;2253017;63;20412;-89
2022/03/30 10:07:41;;;;;;;0.88;0.60;;;15.20;45.30;;;;;;2245281;63;20244;-90
2022/03/30 10:10:10;;;;;;;1.08;0.47;;;15.30;45.40;;;;;;2245758;63;20223;-89
2022/03/30 10:12:38;;;;;;;0.97;0.50;;;15.30;45.30;;;;;;2245874;63;20312;-89
2022/03/30 10:15:06;;;;;;;1.40;0.40;;;15.40;45.30;;;;;;2250829;63;20395;-89
2022/03/30 10:17:32;;;;;;;0.52;0.40;;;15.50;45.20;;;;;;2245364;63;20708;-87
2022/03/30 10:20:01;;;;;;;0.30;0.30;;;15.50;45.10;;;;;;2246927;63;20265;-89
2022/03/30 10:22:34;;;;;;;2.42;0.43;;;15.50;45.00;;;;;;2252301;63;20240;-88
2022/03/30 10:25:06;;;;;;;0.50;0.47;;;15.50;44.80;;;;;;2252076;63;20223;-89
2022/03/30 10:27:54;;;;;;;0.85;0.50;;;15.50;44.80;;;;;;2252851;63;20212;-90
2022/03/30 10:30:30;;;;;;;0.65;0.50;;;15.60;44.70;;;;;;2245953;63;20299;-89
2022/03/30 10:33:00;;;;;;;1.15;0.57;;;15.60;44.60;;;;;;2252655;63;20341;-89
2022/03/30 10:35:50;;;;;;;0.77;0.30;;;15.60;44.60;;;;;;2252894;63;20482;-88
2022/03/30 10:38:17;;;;;;;0.73;0.40;;;15.60;44.60;;;;;;2252584;63;20273;-89
2022/03/30 10:40:44;;;;;;;1.35;0.50;;;15.50;44.60;;;;;;2245633;63;20220;-89
2022/03/30 10:43:13;;;;;;;;;;;15.50;44.60;;;;;;2253335;63;20216;-88
2022/03/30 10:45:51;;;;;;;0.65;0.52;;;15.50;44.60;;;;;;2252404;63;20122;-89
2022/03/30 10:48:24;;;;;;;2.63;0.50;;;15.50;44.60;;;;;;2260368;63;20239;-89
2022/03/30 10:51:01;;;;;;;1.17;0.60;;;15.50;44.60;;;;;;2261405;63;20403;-89
2022/03/30 10:53:38;;;;;;;3.08;0.60;;;15.50;44.70;;;;;;2261894;63;20251;-89
2022/03/30 10:56:21;;;;;;;0.73;0.50;;;15.50;44.60;;;;;;2261916;63;20245;-88
2022/03/30 10:58:53;;;;;;;0.60;0.40;;;15.50;44.60;;;;;;2262125;63;20231;-88
2022/03/30 11:01:30;;;;;;;0.80;0.55;;;15.50;44.60;;;;;;2262034;63;20241;-88
2022/03/30 11:04:17;;;;;;;1.52;0.43;;;15.50;44.60;;;;;;2260801;63;20231;-89
2022/03/30 11:06:47;;;;;;;0.75;0.40;;;15.40;44.60;;;;;;2260974;63;20241;-88
2022/03/30 11:09:28;;;;;;;2.30;0.57;;;15.40;44.60;;;;;;2247514;63;20211;-89
2022/03/30 11:12:05;;;;;;;1.17;0.50;;;15.40;44.60;;;;;;2261396;63;20365;-89
2022/03/30 11:14:46;;;;;;;1.80;0.60;;;15.40;44.70;;;;;;2261872;63;20215;-88
2022/03/30 11:17:32;;;;;;;1.27;0.50;;;15.40;44.70;;;;;;2259611;63;20265;-90
2022/03/30 11:20:06;;;;;;;1.33;0.40;;;15.40;44.70;;;;;;2249658;63;20232;-90
2022/03/30 11:22:34;;;;;;;0.95;0.50;;;15.50;44.60;;;;;;2252516;63;20157;-89
2022/03/30 11:25:18;;;;;;;1.30;0.50;;;15.40;44.60;;;;;;2253170;63;20322;-89
2022/03/30 11:28:04;;;;;;;2.05;0.70;;;15.40;44.50;;;;;;2246113;63;20220;-90
2022/03/30 11:30:38;;;;;;;1.92;0.73;;;15.40;44.60;;;;;;2245474;63;20189;-90
2022/03/30 11:33:22;;;;;;;0.88;0.40;;;15.50;44.50;;;;;;2245461;63;20519;-89
2022/03/30 11:35:49;;;;;;;0.73;0.43;;;15.40;44.50;;;;;;2245958;63;20933;-90
2022/03/30 11:38:26;;;;;;;0.70;0.47;;;15.50;44.60;;;;;;2257100;63;20208;-90
2022/03/30 11:41:06;;;;;;;1.40;0.52;;;15.50;44.50;;;;;;2253128;63;20740;-89
2022/03/30 11:46:32;;;;;;;0.95;0.40;;;15.40;44.50;;;;;;2245634;63;20227;-89
2022/03/30 11:49:04;;;;;;;1.50;0.60;;;15.40;44.60;;;;;;2252362;63;21181;-88
2022/03/30 11:51:32;;;;;;;0.95;0.45;;;15.40;44.70;;;;;;2252785;63;20243;-88
2022/03/30 11:54:10;;;;;;;0.45;0.40;;;15.40;44.70;;;;;;2253497;63;20232;-89
2022/03/30 11:56:36;;;;;;;1.05;0.50;;;15.40;44.80;;;;;;2253424;63;20176;-90
2022/03/30 11:59:02;;;;;;;1.15;0.52;;;15.40;44.80;;;;;;2253360;63;20196;-88
2022/03/30 12:01:29;;;;;;;1.48;0.60;;;15.40;44.70;;;;;;2252971;63;20690;-89
2022/03/30 12:03:55;;;;;;;0.80;0.50;;;15.30;44.60;;;;;;2253136;63;20323;-88
2022/03/30 12:06:21;;;;;;;0.40;0.40;;;15.40;44.80;;;;;;2252920;63;20983;-88
2022/03/30 12:08:49;;;;;;;0.55;0.47;;;15.30;44.70;;;;;;2252729;63;20212;-89
2022/03/30 12:11:19;;;;;;;0.50;0.50;;;15.30;44.80;;;;;;2253607;63;20332;-88
2022/03/30 12:13:51;;;;;;;0.45;0.40;;;15.30;44.80;;;;;;2253368;63;20212;-88
2022/03/30 12:16:17;;;;;;;0.90;0.47;;;15.30;44.80;;;;;;2247437;63;20249;-89
2022/03/30 12:18:54;;;;;;;2.08;0.70;;;15.30;44.80;;;;;;2247083;63;20233;-89
2022/03/30 12:21:23;;;;;;;0.98;0.50;;;15.30;44.90;;;;;;2245189;63;20320;-89
2022/03/30 12:23:56;;;;;;;0.80;0.40;;;15.30;44.80;;;;;;2246573;63;20246;-89
2022/03/30 12:26:23;;;;;;;0.82;0.50;;;15.20;44.80;;;;;;2253961;63;20770;-88
2022/03/30 12:28:49;;;;;;;1.25;0.50;;;15.30;44.80;;;;;;2254545;63;20357;-88
2022/03/30 12:31:22;;;;;;;1.00;0.50;;;15.30;44.90;;;;;;2247561;63;20224;-89
2022/03/30 12:33:50;;;;;;;0.68;0.43;;;15.30;44.80;;;;;;2255002;63;20270;-87
2022/03/30 12:36:19;;;;;;;0.43;0.38;;;15.40;44.80;;;;;;2253539;63;20232;-89
2022/03/30 12:38:51;;;;;;;1.05;0.55;;;15.30;44.70;;;;;;2246334;63;20241;-89
2022/03/30 12:41:25;;;;;;;0.95;0.52;;;15.40;44.70;;;;;;2254035;63;20654;-90
2022/03/30 12:44:02;;;;;;;0.88;0.47;;;15.40;44.60;;;;;;2246245;63;20228;-89
2022/03/30 12:46:30;;;;;;;0.77;0.45;;;15.40;44.70;;;;;;2251737;63;20250;-89
2022/03/30 12:49:07;;;;;;;1.75;0.60;;;15.40;44.70;;;;;;2254048;63;20256;-90
2022/03/30 12:51:33;;;;;;;1.58;0.60;;;15.40;44.50;;;;;;2254038;63;20867;-90
2022/03/30 12:54:01;;;;;;;0.57;0.52;;;15.40;44.60;;;;;;2253680;63;20216;-87
2022/03/30 12:56:31;;;;;;;2.58;0.60;;;15.40;45.30;;;;;;2247273;63;20232;-90
2022/03/30 12:59:04;;;;;;;0.70;0.40;;;15.30;44.60;;;;;;2254592;63;20216;-90
2022/03/30 13:01:35;;;;;;;0.70;0.40;;;15.30;44.70;;;;;;2246301;63;20265;-89
2022/03/30 13:04:23;;;;;;;1.92;0.45;;;15.30;44.70;;;;;;2251905;63;20318;-90
2022/03/30 13:07:26;;;;;;;0.75;0.50;;;15.30;44.70;;;;;;2252451;63;20221;-88